Roxbury, Maine
Current Conditions -  °F | °C
As of 12:52 AM on Sunday 23 Nov 2014 (Local Time) from KBML Reporting Station
Overcast Overcast  
Wind Chill: 36°   Ceiling: 2200
Heat Index: 36°   Visibility: 10mi
Dew Point: 29°   Wind: 3mph
Humidity: 76%   Direction: 350°N
Pressure: 29.9"   Gusts: NA
Location:  44.67°N, 70.59°W
Report Text: KBML 230552Z AUTO 35003KT 10SM OVC022 02/M02 A2990 RMK AO2 SLP137 60000 T00221017 10033 20011 50003
Loading
Personal Weather Stations






























Interactive Weather Map New forecast layout! Learn more

10-Day Weather Forecast

Advertisements
Track Severe Weather on mobile